sensor_id;sensor_type;location;lat;lon;timestamp;P1;durP1;ratioP1;P2;durP2;ratioP2
74851;SDS011;63400;50.650;6.832;2022-12-18T00:01:40;9.68;;;3.53;;
74851;SDS011;63400;50.650;6.832;2022-12-18T00:04:23;9.13;;;3.58;;
74851;SDS011;63400;50.650;6.832;2022-12-18T00:06:55;4.97;;;2.80;;
74851;SDS011;63400;50.650;6.832;2022-12-18T00:09:26;12.38;;;5.25;;
74851;SDS011;63400;50.650;6.832;2022-12-18T00:14:23;36.33;;;9.77;;
74851;SDS011;63400;50.650;6.832;2022-12-18T00:16:53;11.63;;;5.20;;
74851;SDS011;63400;50.650;6.832;2022-12-18T00:19:21;22.90;;;6.75;;
74851;SDS011;63400;50.650;6.832;2022-12-18T00:21:59;11.45;;;4.65;;
74851;SDS011;63400;50.650;6.832;2022-12-18T00:24:25;11.35;;;4.57;;
74851;SDS011;63400;50.650;6.832;2022-12-18T00:26:53;8.13;;;3.85;;
74851;SDS011;63400;50.650;6.832;2022-12-18T00:29:25;5.60;;;4.20;;
74851;SDS011;63400;50.650;6.832;2022-12-18T00:31:53;15.43;;;4.30;;
74851;SDS011;63400;50.650;6.832;2022-12-18T00:34:21;34.53;;;8.70;;
74851;SDS011;63400;50.650;6.832;2022-12-18T00:36:47;9.65;;;4.43;;
74851;SDS011;63400;50.650;6.832;2022-12-18T00:41:41;8.55;;;3.50;;
74851;SDS011;63400;50.650;6.832;2022-12-18T00:44:25;4.15;;;2.45;;
74851;SDS011;63400;50.650;6.832;2022-12-18T00:46:56;3.67;;;1.92;;
74851;SDS011;63400;50.650;6.832;2022-12-18T00:49:25;27.65;;;7.82;;
74851;SDS011;63400;50.650;6.832;2022-12-18T00:51:50;4.75;;;2.10;;
74851;SDS011;63400;50.650;6.832;2022-12-18T00:54:16;49.72;;;13.02;;
74851;SDS011;63400;50.650;6.832;2022-12-18T00:56:53;9.93;;;5.00;;
74851;SDS011;63400;50.650;6.832;2022-12-18T00:59:20;50.95;;;11.95;;
74851;SDS011;63400;50.650;6.832;2022-12-18T01:01:46;5.20;;;1.92;;
74851;SDS011;63400;50.650;6.832;2022-12-18T01:04:33;6.25;;;4.15;;
74851;SDS011;63400;50.650;6.832;2022-12-18T01:39:50;9.57;;;3.75;;
74851;SDS011;63400;50.650;6.832;2022-12-18T02:24:41;8.43;;;4.13;;
74851;SDS011;63400;50.650;6.832;2022-12-18T02:41:59;5.88;;;3.38;;
74851;SDS011;63400;50.650;6.832;2022-12-18T03:20:20;12.60;;;5.72;;
74851;SDS011;63400;50.650;6.832;2022-12-18T03:59:18;18.55;;;4.40;;
74851;SDS011;63400;50.650;6.832;2022-12-18T04:09:48;12.13;;;4.82;;
74851;SDS011;63400;50.650;6.832;2022-12-18T04:54:21;15.35;;;7.43;;
74851;SDS011;63400;50.650;6.832;2022-12-18T04:57:39;20.40;;;7.15;;
74851;SDS011;63400;50.650;6.832;2022-12-18T05:01:03;19.33;;;8.45;;
74851;SDS011;63400;50.650;6.832;2022-12-18T05:18:15;21.77;;;8.38;;
74851;SDS011;63400;50.650;6.832;2022-12-18T05:41:55;27.42;;;9.55;;
74851;SDS011;63400;50.650;6.832;2022-12-18T13:13:17;25.08;;;12.75;;
74851;SDS011;63400;50.650;6.832;2022-12-18T13:19:18;25.65;;;13.13;;
74851;SDS011;63400;50.650;6.832;2022-12-18T13:42:44;28.85;;;14.02;;
74851;SDS011;63400;50.650;6.832;2022-12-18T14:19:12;25.23;;;11.60;;
74851;SDS011;63400;50.650;6.832;2022-12-18T15:17:16;32.20;;;13.57;;
74851;SDS011;63400;50.650;6.832;2022-12-18T15:42:28;31.35;;;15.77;;
74851;SDS011;63400;50.650;6.832;2022-12-18T15:45:13;30.90;;;16.10;;
74851;SDS011;63400;50.650;6.832;2022-12-18T15:47:39;34.92;;;17.50;;
74851;SDS011;63400;50.650;6.832;2022-12-18T15:50:07;30.30;;;13.45;;
74851;SDS011;63400;50.650;6.832;2022-12-18T15:55:19;43.60;;;17.92;;
74851;SDS011;63400;50.650;6.832;2022-12-18T16:00:35;33.55;;;14.63;;
74851;SDS011;63400;50.650;6.832;2022-12-18T16:03:04;27.55;;;13.43;;
74851;SDS011;63400;50.650;6.832;2022-12-18T16:05:30;30.15;;;14.65;;
74851;SDS011;63400;50.650;6.832;2022-12-18T16:07:56;28.73;;;12.20;;
74851;SDS011;63400;50.650;6.832;2022-12-18T16:10:23;42.45;;;16.60;;
74851;SDS011;63400;50.650;6.832;2022-12-18T16:12:51;23.98;;;11.25;;
74851;SDS011;63400;50.650;6.832;2022-12-18T16:15:16;42.50;;;19.77;;
74851;SDS011;63400;50.650;6.832;2022-12-18T16:17:42;22.55;;;9.85;;
74851;SDS011;63400;50.650;6.832;2022-12-18T16:20:12;25.92;;;12.18;;
74851;SDS011;63400;50.650;6.832;2022-12-18T16:22:40;26.23;;;12.43;;
74851;SDS011;63400;50.650;6.832;2022-12-18T16:25:09;24.15;;;11.75;;
74851;SDS011;63400;50.650;6.832;2022-12-18T16:27:40;31.42;;;14.32;;
74851;SDS011;63400;50.650;6.832;2022-12-18T16:30:06;21.33;;;8.50;;
74851;SDS011;63400;50.650;6.832;2022-12-18T16:32:31;24.38;;;11.02;;
74851;SDS011;63400;50.650;6.832;2022-12-18T16:34:59;27.10;;;11.82;;
74851;SDS011;63400;50.650;6.832;2022-12-18T16:39:56;28.80;;;14.32;;
74851;SDS011;63400;50.650;6.832;2022-12-18T16:42:21;26.63;;;11.15;;
74851;SDS011;63400;50.650;6.832;2022-12-18T16:44:47;28.17;;;10.60;;
74851;SDS011;63400;50.650;6.832;2022-12-18T16:47:14;34.20;;;12.90;;
74851;SDS011;63400;50.650;6.832;2022-12-18T16:49:39;19.90;;;8.55;;
74851;SDS011;63400;50.650;6.832;2022-12-18T16:54:59;21.13;;;10.65;;
74851;SDS011;63400;50.650;6.832;2022-12-18T16:57:24;27.38;;;12.00;;
74851;SDS011;63400;50.650;6.832;2022-12-18T16:59:50;22.05;;;11.30;;
74851;SDS011;63400;50.650;6.832;2022-12-18T17:02:20;34.25;;;13.93;;
74851;SDS011;63400;50.650;6.832;2022-12-18T17:04:55;24.88;;;11.05;;
74851;SDS011;63400;50.650;6.832;2022-12-18T17:07:22;32.00;;;12.50;;
74851;SDS011;63400;50.650;6.832;2022-12-18T17:09:47;23.65;;;10.60;;
74851;SDS011;63400;50.650;6.832;2022-12-18T17:12:14;26.50;;;10.07;;
74851;SDS011;63400;50.650;6.832;2022-12-18T17:14:40;21.38;;;9.98;;
74851;SDS011;63400;50.650;6.832;2022-12-18T17:17:05;23.40;;;9.65;;
74851;SDS011;63400;50.650;6.832;2022-12-18T17:19:32;21.45;;;9.40;;
74851;SDS011;63400;50.650;6.832;2022-12-18T17:21:58;19.88;;;8.27;;
74851;SDS011;63400;50.650;6.832;2022-12-18T17:24:24;20.73;;;8.07;;
74851;SDS011;63400;50.650;6.832;2022-12-18T17:26:49;11.77;;;5.18;;
74851;SDS011;63400;50.650;6.832;2022-12-18T17:29:16;18.48;;;7.07;;
74851;SDS011;63400;50.650;6.832;2022-12-18T17:31:42;15.18;;;4.95;;
74851;SDS011;63400;50.650;6.832;2022-12-18T17:34:08;21.70;;;9.65;;
74851;SDS011;63400;50.650;6.832;2022-12-18T17:36:35;26.05;;;12.35;;
74851;SDS011;63400;50.650;6.832;2022-12-18T17:39:01;27.92;;;12.05;;
74851;SDS011;63400;50.650;6.832;2022-12-18T17:41:27;21.80;;;9.23;;
74851;SDS011;63400;50.650;6.832;2022-12-18T17:44:04;15.90;;;5.82;;
74851;SDS011;63400;50.650;6.832;2022-12-18T17:46:30;11.45;;;4.93;;
74851;SDS011;63400;50.650;6.832;2022-12-18T17:48:57;14.88;;;5.15;;
74851;SDS011;63400;50.650;6.832;2022-12-18T17:51:23;19.23;;;7.82;;
74851;SDS011;63400;50.650;6.832;2022-12-18T17:53:49;15.68;;;6.57;;
74851;SDS011;63400;50.650;6.832;2022-12-18T17:56:16;16.52;;;6.28;;
74851;SDS011;63400;50.650;6.832;2022-12-18T17:58:43;14.85;;;7.07;;
74851;SDS011;63400;50.650;6.832;2022-12-18T18:01:08;13.45;;;5.20;;
74851;SDS011;63400;50.650;6.832;2022-12-18T18:03:37;12.07;;;5.60;;
74851;SDS011;63400;50.650;6.832;2022-12-18T18:06:03;18.92;;;6.47;;
74851;SDS011;63400;50.650;6.832;2022-12-18T18:08:29;22.60;;;7.93;;
74851;SDS011;63400;50.650;6.832;2022-12-18T18:10:56;13.57;;;6.85;;
74851;SDS011;63400;50.650;6.832;2022-12-18T18:13:43;14.82;;;6.63;;
74851;SDS011;63400;50.650;6.832;2022-12-18T18:19:00;13.80;;;6.65;;
74851;SDS011;63400;50.650;6.832;2022-12-18T18:21:27;26.08;;;9.50;;
74851;SDS011;63400;50.650;6.832;2022-12-18T18:23:53;19.77;;;8.20;;
74851;SDS011;63400;50.650;6.832;2022-12-18T18:26:18;23.73;;;8.80;;
74851;SDS011;63400;50.650;6.832;2022-12-18T18:28:45;15.85;;;6.28;;
74851;SDS011;63400;50.650;6.832;2022-12-18T18:31:10;19.73;;;8.20;;
74851;SDS011;63400;50.650;6.832;2022-12-18T18:33:36;13.55;;;5.60;;
74851;SDS011;63400;50.650;6.832;2022-12-18T18:36:02;17.00;;;6.97;;
74851;SDS011;63400;50.650;6.832;2022-12-18T18:41:18;15.73;;;5.93;;
74851;SDS011;63400;50.650;6.832;2022-12-18T18:43:45;21.15;;;10.00;;
74851;SDS011;63400;50.650;6.832;2022-12-18T18:46:12;32.90;;;12.48;;
74851;SDS011;63400;50.650;6.832;2022-12-18T18:48:39;29.27;;;12.23;;
74851;SDS011;63400;50.650;6.832;2022-12-18T18:51:06;21.77;;;9.07;;
74851;SDS011;63400;50.650;6.832;2022-12-18T18:56:11;14.70;;;4.90;;
74851;SDS011;63400;50.650;6.832;2022-12-18T18:58:39;17.50;;;7.47;;
74851;SDS011;63400;50.650;6.832;2022-12-18T19:01:10;9.40;;;4.55;;
74851;SDS011;63400;50.650;6.832;2022-12-18T19:03:36;17.45;;;7.78;;
74851;SDS011;63400;50.650;6.832;2022-12-18T19:06:37;11.73;;;6.20;;
74851;SDS011;63400;50.650;6.832;2022-12-18T19:11:45;12.60;;;6.25;;
74851;SDS011;63400;50.650;6.832;2022-12-18T19:14:30;13.60;;;6.38;;
74851;SDS011;63400;50.650;6.832;2022-12-18T19:16:55;22.27;;;9.38;;
74851;SDS011;63400;50.650;6.832;2022-12-18T19:21:57;10.00;;;4.38;;
74851;SDS011;63400;50.650;6.832;2022-12-18T19:24:29;19.50;;;6.40;;
74851;SDS011;63400;50.650;6.832;2022-12-18T19:26:54;15.35;;;7.07;;
74851;SDS011;63400;50.650;6.832;2022-12-18T19:29:20;18.00;;;6.53;;
74851;SDS011;63400;50.650;6.832;2022-12-18T19:31:45;21.55;;;9.23;;
74851;SDS011;63400;50.650;6.832;2022-12-18T19:34:13;29.05;;;10.90;;
74851;SDS011;63400;50.650;6.832;2022-12-18T19:36:38;30.40;;;13.68;;
74851;SDS011;63400;50.650;6.832;2022-12-18T19:39:12;27.38;;;10.05;;
74851;SDS011;63400;50.650;6.832;2022-12-18T19:41:42;27.55;;;12.40;;
74851;SDS011;63400;50.650;6.832;2022-12-18T19:44:09;45.55;;;16.92;;
74851;SDS011;63400;50.650;6.832;2022-12-18T19:46:41;23.55;;;10.27;;
74851;SDS011;63400;50.650;6.832;2022-12-18T19:49:31;36.13;;;14.48;;
74851;SDS011;63400;50.650;6.832;2022-12-18T19:51:57;21.42;;;10.13;;
74851;SDS011;63400;50.650;6.832;2022-12-18T19:57:42;31.40;;;11.25;;
